LMML/MLA METAR and TAF weather

Enter ICAO airport designator
Station Type Date Time Source
LMML METAR 2021/08/01 17:15 UTC NOAA

LMML 011715Z 23004KT CAVOK 35/10 Q1012 NOSIG


Station Type Date Time Source
LMML Decoded METAR 2021/08/01 17:15 UTC NOAA

Luqa, Malta (LMML) 35-51N 014-29E 91M
Aug 01, 2021 - 01:15 PM EDT / 2021.08.01 1715 UTC
Wind: from the SW (230 degrees) at 5 MPH (4 KT):0
Visibility: greater than 7 mile(s):0
Temperature: 95 F (35 C)
Dew Point: 50 F (10 C)
Relative Humidity: 21%
Pressure (altimeter): 29.88 in. Hg (1012 hPa)
ob: LMML 011715Z 23004KT CAVOK 35/10 Q1012 NOSIG
cycle: 17

Station Type Date Time Source
LMML TAF 2021/08/01 18:47 UTC NOAA

TAF LMML 011700Z 0118/0218 VRB07KT CAVOK

Example: see airport list